sensor_id;sensor_type;location;lat;lon;timestamp;pressure;altitude;pressure_sealevel;temperature;humidity
11349;BME280;5729;43.570;27.826;2023-02-28T00:02:17;100044.03;;;6.13;100.00
11349;BME280;5729;43.570;27.826;2023-02-28T00:04:43;100053.78;;;6.09;100.00
11349;BME280;5729;43.570;27.826;2023-02-28T00:07:09;100063.84;;;5.63;100.00
11349;BME280;5729;43.570;27.826;2023-02-28T00:09:35;100074.03;;;5.74;100.00
11349;BME280;5729;43.570;27.826;2023-02-28T00:12:00;100056.28;;;5.78;100.00
11349;BME280;5729;43.570;27.826;2023-02-28T00:14:35;100040.00;;;6.02;100.00
11349;BME280;5729;43.570;27.826;2023-02-28T00:17:00;100028.88;;;5.73;100.00
11349;BME280;5729;43.570;27.826;2023-02-28T00:19:26;100019.03;;;5.96;100.00
11349;BME280;5729;43.570;27.826;2023-02-28T00:21:51;100021.34;;;6.11;100.00
11349;BME280;5729;43.570;27.826;2023-02-28T00:24:17;100031.63;;;6.17;100.00
11349;BME280;5729;43.570;27.826;2023-02-28T00:26:42;100030.78;;;6.31;100.00
11349;BME280;5729;43.570;27.826;2023-02-28T00:29:08;100038.47;;;6.10;100.00
11349;BME280;5729;43.570;27.826;2023-02-28T00:31:33;100041.25;;;6.18;100.00
11349;BME280;5729;43.570;27.826;2023-02-28T00:33:58;100042.69;;;6.02;100.00
11349;BME280;5729;43.570;27.826;2023-02-28T00:36:24;100078.25;;;6.03;100.00
11349;BME280;5729;43.570;27.826;2023-02-28T00:38:49;100081.47;;;5.91;100.00
11349;BME280;5729;43.570;27.826;2023-02-28T00:41:15;100088.19;;;5.89;100.00
11349;BME280;5729;43.570;27.826;2023-02-28T00:43:40;100087.19;;;5.98;100.00
11349;BME280;5729;43.570;27.826;2023-02-28T00:46:06;100096.00;;;5.99;100.00
11349;BME280;5729;43.570;27.826;2023-02-28T00:48:32;100097.69;;;6.08;100.00
11349;BME280;5729;43.570;27.826;2023-02-28T00:50:58;100082.94;;;5.97;100.00
11349;BME280;5729;43.570;27.826;2023-02-28T00:53:23;100077.19;;;5.90;100.00
11349;BME280;5729;43.570;27.826;2023-02-28T00:55:49;100090.84;;;6.02;100.00
11349;BME280;5729;43.570;27.826;2023-02-28T00:58:15;100089.78;;;5.90;100.00
11349;BME280;5729;43.570;27.826;2023-02-28T01:00:41;100097.22;;;5.93;100.00
11349;BME280;5729;43.570;27.826;2023-02-28T01:03:06;100105.50;;;6.18;100.00
11349;BME280;5729;43.570;27.826;2023-02-28T01:05:32;100095.88;;;6.17;100.00
11349;BME280;5729;43.570;27.826;2023-02-28T01:07:58;100106.00;;;6.21;100.00
11349;BME280;5729;43.570;27.826;2023-02-28T01:10:23;100108.88;;;6.10;100.00
11349;BME280;5729;43.570;27.826;2023-02-28T01:12:49;100096.47;;;6.14;100.00
11349;BME280;5729;43.570;27.826;2023-02-28T01:15:15;100083.47;;;5.58;100.00
11349;BME280;5729;43.570;27.826;2023-02-28T01:17:40;100068.38;;;5.90;100.00
11349;BME280;5729;43.570;27.826;2023-02-28T01:20:06;100071.16;;;5.84;100.00
11349;BME280;5729;43.570;27.826;2023-02-28T01:22:32;100083.75;;;5.98;100.00
11349;BME280;5729;43.570;27.826;2023-02-28T01:24:59;100093.06;;;5.87;100.00
11349;BME280;5729;43.570;27.826;2023-02-28T01:27:24;100078.81;;;5.64;100.00
11349;BME280;5729;43.570;27.826;2023-02-28T01:29:51;100081.97;;;5.93;100.00
11349;BME280;5729;43.570;27.826;2023-02-28T01:32:17;100082.16;;;5.97;100.00
11349;BME280;5729;43.570;27.826;2023-02-28T01:34:42;100074.13;;;5.97;100.00
11349;BME280;5729;43.570;27.826;2023-02-28T01:37:08;100080.44;;;5.87;100.00
11349;BME280;5729;43.570;27.826;2023-02-28T01:39:33;100078.28;;;5.89;100.00
11349;BME280;5729;43.570;27.826;2023-02-28T01:41:58;100068.88;;;5.78;100.00
11349;BME280;5729;43.570;27.826;2023-02-28T01:47:36;100076.47;;;5.98;100.00
11349;BME280;5729;43.570;27.826;2023-02-28T01:50:06;100071.88;;;6.12;100.00
11349;BME280;5729;43.570;27.826;2023-02-28T01:52:33;100088.69;;;5.77;100.00
11349;BME280;5729;43.570;27.826;2023-02-28T01:55:00;100090.88;;;5.89;100.00
11349;BME280;5729;43.570;27.826;2023-02-28T01:57:32;100063.03;;;5.90;100.00
11349;BME280;5729;43.570;27.826;2023-02-28T02:00:06;100076.44;;;6.12;100.00
11349;BME280;5729;43.570;27.826;2023-02-28T02:02:33;100079.13;;;6.12;100.00
11349;BME280;5729;43.570;27.826;2023-02-28T02:05:31;100081.22;;;6.15;100.00
11349;BME280;5729;43.570;27.826;2023-02-28T02:07:54;100060.66;;;5.88;100.00
11349;BME280;5729;43.570;27.826;2023-02-28T02:10:36;100075.22;;;5.96;100.00
11349;BME280;5729;43.570;27.826;2023-02-28T02:18:30;100092.88;;;5.69;100.00
11349;BME280;5729;43.570;27.826;2023-02-28T02:23:49;100101.28;;;5.90;100.00
11349;BME280;5729;43.570;27.826;2023-02-28T02:35:02;100126.34;;;5.80;100.00
11349;BME280;5729;43.570;27.826;2023-02-28T02:37:52;100130.13;;;5.93;100.00
11349;BME280;5729;43.570;27.826;2023-02-28T02:40:21;100123.16;;;6.06;100.00
11349;BME280;5729;43.570;27.826;2023-02-28T02:43:22;100121.59;;;5.91;100.00
11349;BME280;5729;43.570;27.826;2023-02-28T02:45:43;100107.03;;;5.97;100.00
11349;BME280;5729;43.570;27.826;2023-02-28T02:48:15;100103.94;;;6.04;100.00
11349;BME280;5729;43.570;27.826;2023-02-28T02:50:48;100118.00;;;6.09;100.00
11349;BME280;5729;43.570;27.826;2023-02-28T02:53:17;100123.16;;;6.06;100.00
11349;BME280;5729;43.570;27.826;2023-02-28T02:55:47;100127.13;;;6.08;100.00
11349;BME280;5729;43.570;27.826;2023-02-28T02:58:18;100132.00;;;5.93;100.00
11349;BME280;5729;43.570;27.826;2023-02-28T03:00:48;100148.94;;;6.02;100.00
11349;BME280;5729;43.570;27.826;2023-02-28T03:03:16;100154.56;;;6.00;100.00
11349;BME280;5729;43.570;27.826;2023-02-28T03:08:12;100138.31;;;6.10;100.00
11349;BME280;5729;43.570;27.826;2023-02-28T03:10:43;100141.94;;;6.28;100.00
11349;BME280;5729;43.570;27.826;2023-02-28T03:21:28;100134.16;;;6.18;100.00
11349;BME280;5729;43.570;27.826;2023-02-28T03:26:58;100149.22;;;6.00;100.00
11349;BME280;5729;43.570;27.826;2023-02-28T03:29:39;100128.03;;;6.04;100.00
11349;BME280;5729;43.570;27.826;2023-02-28T03:32:18;100123.53;;;6.13;100.00
11349;BME280;5729;43.570;27.826;2023-02-28T03:35:23;100134.22;;;6.27;100.00
11349;BME280;5729;43.570;27.826;2023-02-28T03:37:53;100110.66;;;6.01;100.00
11349;BME280;5729;43.570;27.826;2023-02-28T03:40:23;100147.03;;;6.16;100.00
11349;BME280;5729;43.570;27.826;2023-02-28T03:42:54;100145.88;;;5.95;100.00
11349;BME280;5729;43.570;27.826;2023-02-28T03:45:26;100146.06;;;5.98;100.00
11349;BME280;5729;43.570;27.826;2023-02-28T03:48:09;100137.13;;;6.03;100.00
11349;BME280;5729;43.570;27.826;2023-02-28T03:50:40;100136.94;;;5.99;100.00
11349;BME280;5729;43.570;27.826;2023-02-28T03:53:37;100139.91;;;6.11;100.00
11349;BME280;5729;43.570;27.826;2023-02-28T03:56:17;100144.66;;;6.14;100.00
11349;BME280;5729;43.570;27.826;2023-02-28T04:03:56;100140.78;;;6.21;100.00
11349;BME280;5729;43.570;27.826;2023-02-28T04:06:22;100135.22;;;6.31;100.00
11349;BME280;5729;43.570;27.826;2023-02-28T04:08:48;100122.75;;;6.12;100.00
11349;BME280;5729;43.570;27.826;2023-02-28T04:11:22;100135.09;;;6.22;100.00
11349;BME280;5729;43.570;27.826;2023-02-28T04:13:48;100132.78;;;6.07;100.00
11349;BME280;5729;43.570;27.826;2023-02-28T04:16:13;100125.84;;;6.06;100.00
11349;BME280;5729;43.570;27.826;2023-02-28T04:18:40;100141.47;;;6.12;100.00
11349;BME280;5729;43.570;27.826;2023-02-28T04:21:06;100153.38;;;6.20;100.00
11349;BME280;5729;43.570;27.826;2023-02-28T04:23:32;100166.63;;;6.25;100.00
11349;BME280;5729;43.570;27.826;2023-02-28T04:25:57;100168.22;;;6.26;100.00
11349;BME280;5729;43.570;27.826;2023-02-28T04:28:23;100171.53;;;6.45;100.00
11349;BME280;5729;43.570;27.826;2023-02-28T04:30:57;100174.34;;;6.40;100.00
11349;BME280;5729;43.570;27.826;2023-02-28T04:33:23;100172.28;;;6.37;100.00
11349;BME280;5729;43.570;27.826;2023-02-28T04:36:07;100176.25;;;6.26;100.00
11349;BME280;5729;43.570;27.826;2023-02-28T04:38:35;100172.28;;;6.37;100.00
11349;BME280;5729;43.570;27.826;2023-02-28T04:41:00;100168.28;;;6.48;100.00
11349;BME280;5729;43.570;27.826;2023-02-28T04:43:30;100160.22;;;6.48;100.00
11349;BME280;5729;43.570;27.826;2023-02-28T04:45:57;100141.31;;;6.09;100.00
11349;BME280;5729;43.570;27.826;2023-02-28T04:48:24;100168.38;;;6.07;100.00
11349;BME280;5729;43.570;27.826;2023-02-28T04:50:51;100161.34;;;5.98;100.00
11349;BME280;5729;43.570;27.826;2023-02-28T04:53:17;100165.91;;;5.97;100.00
11349;BME280;5729;43.570;27.826;2023-02-28T04:55:43;100169.75;;;6.05;100.00
11349;BME280;5729;43.570;27.826;2023-02-28T04:58:09;100163.53;;;5.96;100.00
11349;BME280;5729;43.570;27.826;2023-02-28T05:00:35;100169.75;;;5.91;100.00
11349;BME280;5729;43.570;27.826;2023-02-28T05:03:00;100172.81;;;5.98;100.00
11349;BME280;5729;43.570;27.826;2023-02-28T05:05:26;100171.84;;;5.94;100.00
11349;BME280;5729;43.570;27.826;2023-02-28T05:07:51;100177.19;;;5.94;100.00
11349;BME280;5729;43.570;27.826;2023-02-28T05:10:18;100168.97;;;6.04;100.00
11349;BME280;5729;43.570;27.826;2023-02-28T05:12:44;100170.34;;;6.02;100.00
11349;BME280;5729;43.570;27.826;2023-02-28T05:15:13;100178.06;;;5.90;100.00
11349;BME280;5729;43.570;27.826;2023-02-28T05:17:39;100199.69;;;6.07;100.00
11349;BME280;5729;43.570;27.826;2023-02-28T05:20:05;100185.31;;;6.03;100.00
11349;BME280;5729;43.570;27.826;2023-02-28T05:22:31;100194.44;;;5.88;100.00
11349;BME280;5729;43.570;27.826;2023-02-28T05:24:57;100193.84;;;5.91;100.00
11349;BME280;5729;43.570;27.826;2023-02-28T05:27:24;100195.47;;;5.87;100.00
11349;BME280;5729;43.570;27.826;2023-02-28T05:29:50;100213.25;;;5.83;100.00
11349;BME280;5729;43.570;27.826;2023-02-28T05:32:15;100217.28;;;5.80;100.00
11349;BME280;5729;43.570;27.826;2023-02-28T05:34:41;100211.94;;;5.80;100.00
11349;BME280;5729;43.570;27.826;2023-02-28T05:37:11;100196.78;;;5.76;100.00
11349;BME280;5729;43.570;27.826;2023-02-28T05:39:38;100210.56;;;5.83;100.00
11349;BME280;5729;43.570;27.826;2023-02-28T05:42:04;100225.72;;;5.88;100.00
11349;BME280;5729;43.570;27.826;2023-02-28T05:44:29;100229.72;;;5.90;100.00
11349;BME280;5729;43.570;27.826;2023-02-28T05:46:55;100233.25;;;5.72;100.00
11349;BME280;5729;43.570;27.826;2023-02-28T05:49:20;100238.63;;;5.86;100.00
11349;BME280;5729;43.570;27.826;2023-02-28T05:51:46;100232.75;;;5.83;100.00
11349;BME280;5729;43.570;27.826;2023-02-28T05:54:11;100227.13;;;5.99;100.00
11349;BME280;5729;43.570;27.826;2023-02-28T05:56:37;100227.53;;;6.06;100.00
11349;BME280;5729;43.570;27.826;2023-02-28T05:59:05;100226.75;;;6.19;100.00
11349;BME280;5729;43.570;27.826;2023-02-28T06:01:32;100223.28;;;5.91;100.00
11349;BME280;5729;43.570;27.826;2023-02-28T06:04:02;100230.13;;;5.97;100.00
11349;BME280;5729;43.570;27.826;2023-02-28T06:06:28;100227.75;;;5.96;100.00
11349;BME280;5729;43.570;27.826;2023-02-28T06:08:55;100231.88;;;5.88;100.00
11349;BME280;5729;43.570;27.826;2023-02-28T06:11:20;100238.44;;;5.96;100.00
11349;BME280;5729;43.570;27.826;2023-02-28T06:13:46;100242.41;;;6.12;100.00
11349;BME280;5729;43.570;27.826;2023-02-28T06:16:12;100247.94;;;6.02;100.00
11349;BME280;5729;43.570;27.826;2023-02-28T06:18:38;100248.47;;;6.17;100.00
11349;BME280;5729;43.570;27.826;2023-02-28T06:21:04;100247.88;;;6.21;100.00
11349;BME280;5729;43.570;27.826;2023-02-28T06:23:30;100242.19;;;6.22;100.00
11349;BME280;5729;43.570;27.826;2023-02-28T06:25:55;100250.41;;;6.39;100.00
11349;BME280;5729;43.570;27.826;2023-02-28T06:28:24;100250.63;;;6.29;100.00
11349;BME280;5729;43.570;27.826;2023-02-28T06:30:50;100245.69;;;5.95;100.00
11349;BME280;5729;43.570;27.826;2023-02-28T06:33:15;100253.72;;;6.09;100.00
11349;BME280;5729;43.570;27.826;2023-02-28T06:35:44;100248.25;;;6.00;100.00
11349;BME280;5729;43.570;27.826;2023-02-28T06:38:09;100251.22;;;5.99;100.00
11349;BME280;5729;43.570;27.826;2023-02-28T06:40:35;100254.69;;;6.13;100.00
11349;BME280;5729;43.570;27.826;2023-02-28T06:43:01;100260.44;;;6.06;100.00
11349;BME280;5729;43.570;27.826;2023-02-28T06:45:27;100254.19;;;6.11;100.00
11349;BME280;5729;43.570;27.826;2023-02-28T06:47:52;100253.22;;;6.07;100.00
11349;BME280;5729;43.570;27.826;2023-02-28T06:50:18;100262.72;;;6.13;100.00
11349;BME280;5729;43.570;27.826;2023-02-28T06:52:44;100263.13;;;6.06;100.00
11349;BME280;5729;43.570;27.826;2023-02-28T06:55:10;100249.34;;;5.99;100.00
11349;BME280;5729;43.570;27.826;2023-02-28T06:57:36;100274.31;;;5.95;100.00
11349;BME280;5729;43.570;27.826;2023-02-28T07:00:07;100262.03;;;6.07;100.00
11349;BME280;5729;43.570;27.826;2023-02-28T07:02:37;100256.69;;;6.07;100.00
11349;BME280;5729;43.570;27.826;2023-02-28T07:05:06;100246.28;;;6.06;100.00
11349;BME280;5729;43.570;27.826;2023-02-28T07:07:31;100241.22;;;6.04;100.00
11349;BME280;5729;43.570;27.826;2023-02-28T07:09:57;100238.94;;;5.98;100.00
11349;BME280;5729;43.570;27.826;2023-02-28T07:12:23;100246.06;;;5.89;100.00
11349;BME280;5729;43.570;27.826;2023-02-28T07:14:48;100247.16;;;6.01;100.00
11349;BME280;5729;43.570;27.826;2023-02-28T07:17:14;100257.38;;;6.13;100.00
11349;BME280;5729;43.570;27.826;2023-02-28T07:19:39;100264.59;;;6.26;100.00
11349;BME280;5729;43.570;27.826;2023-02-28T07:22:05;100273.34;;;6.18;100.00
11349;BME280;5729;43.570;27.826;2023-02-28T07:24:31;100271.53;;;6.13;100.00
11349;BME280;5729;43.570;27.826;2023-02-28T07:26:56;100260.63;;;6.10;100.00
11349;BME280;5729;43.570;27.826;2023-02-28T07:29:22;100272.94;;;6.25;100.00
11349;BME280;5729;43.570;27.826;2023-02-28T07:31:47;100267.78;;;6.14;100.00
11349;BME280;5729;43.570;27.826;2023-02-28T07:34:13;100274.72;;;6.02;100.00
11349;BME280;5729;43.570;27.826;2023-02-28T07:36:39;100265.00;;;6.06;100.00
11349;BME280;5729;43.570;27.826;2023-02-28T07:39:04;100251.13;;;5.90;100.00
11349;BME280;5729;43.570;27.826;2023-02-28T07:41:30;100250.31;;;5.90;100.00
11349;BME280;5729;43.570;27.826;2023-02-28T07:43:58;100250.59;;;5.74;100.00
11349;BME280;5729;43.570;27.826;2023-02-28T07:46:25;100263.50;;;5.86;100.00
11349;BME280;5729;43.570;27.826;2023-02-28T07:48:51;100267.28;;;5.99;100.00
11349;BME280;5729;43.570;27.826;2023-02-28T07:51:18;100266.69;;;6.02;100.00
11349;BME280;5729;43.570;27.826;2023-02-28T07:53:44;100271.97;;;6.21;100.00
11349;BME280;5729;43.570;27.826;2023-02-28T07:56:09;100272.94;;;6.25;100.00
11349;BME280;5729;43.570;27.826;2023-02-28T07:58:36;100276.31;;;6.30;100.00
11349;BME280;5729;43.570;27.826;2023-02-28T08:01:06;100261.34;;;6.29;100.00
11349;BME280;5729;43.570;27.826;2023-02-28T08:03:32;100251.94;;;6.18;100.00
11349;BME280;5729;43.570;27.826;2023-02-28T08:05:57;100265.41;;;6.40;100.00
11349;BME280;5729;43.570;27.826;2023-02-28T08:08:23;100260.25;;;6.30;100.00
11349;BME280;5729;43.570;27.826;2023-02-28T08:10:48;100260.72;;;6.46;100.00
11349;BME280;5729;43.570;27.826;2023-02-28T08:13:14;100255.84;;;6.48;100.00
11349;BME280;5729;43.570;27.826;2023-02-28T08:15:41;100264.91;;;6.38;100.00
11349;BME280;5729;43.570;27.826;2023-02-28T08:18:08;100255.38;;;6.32;100.00
11349;BME280;5729;43.570;27.826;2023-02-28T08:20:33;100260.63;;;6.37;100.00
11349;BME280;5729;43.570;27.826;2023-02-28T08:22:59;100255.69;;;6.31;100.00
11349;BME280;5729;43.570;27.826;2023-02-28T08:25:25;100260.13;;;6.35;100.00
11349;BME280;5729;43.570;27.826;2023-02-28T08:27:51;100258.44;;;6.39;100.00
11349;BME280;5729;43.570;27.826;2023-02-28T08:30:17;100266.34;;;6.72;100.00
11349;BME280;5729;43.570;27.826;2023-02-28T08:32:43;100266.47;;;6.89;100.00
11349;BME280;5729;43.570;27.826;2023-02-28T08:35:09;100270.47;;;6.78;100.00
11349;BME280;5729;43.570;27.826;2023-02-28T08:37:34;100246.19;;;6.74;100.00
11349;BME280;5729;43.570;27.826;2023-02-28T08:40:00;100252.22;;;7.02;100.00
11349;BME280;5729;43.570;27.826;2023-02-28T08:42:25;100255.53;;;7.44;100.00
11349;BME280;5729;43.570;27.826;2023-02-28T08:44:51;100254.59;;;7.79;100.00
11349;BME280;5729;43.570;27.826;2023-02-28T08:47:16;100240.53;;;7.74;100.00
11349;BME280;5729;43.570;27.826;2023-02-28T08:49:42;100238.03;;;7.77;100.00
11349;BME280;5729;43.570;27.826;2023-02-28T08:52:08;100228.94;;;7.56;100.00
11349;BME280;5729;43.570;27.826;2023-02-28T08:54:33;100244.47;;;7.45;100.00
11349;BME280;5729;43.570;27.826;2023-02-28T08:57:00;100252.44;;;7.59;100.00
11349;BME280;5729;43.570;27.826;2023-02-28T08:59:25;100245.09;;;7.64;100.00
11349;BME280;5729;43.570;27.826;2023-02-28T09:01:51;100248.59;;;7.74;100.00
11349;BME280;5729;43.570;27.826;2023-02-28T09:04:16;100251.41;;;7.99;100.00
11349;BME280;5729;43.570;27.826;2023-02-28T09:06:41;100263.53;;;7.97;100.00
11349;BME280;5729;43.570;27.826;2023-02-28T09:09:07;100274.84;;;8.25;100.00
11349;BME280;5729;43.570;27.826;2023-02-28T09:11:34;100277.78;;;8.06;100.00
11349;BME280;5729;43.570;27.826;2023-02-28T09:14:00;100280.16;;;8.08;100.00
11349;BME280;5729;43.570;27.826;2023-02-28T09:16:29;100281.25;;;7.67;100.00
11349;BME280;5729;43.570;27.826;2023-02-28T09:18:56;100276.75;;;7.85;100.00
11349;BME280;5729;43.570;27.826;2023-02-28T09:21:21;100272.66;;;7.87;100.00
11349;BME280;5729;43.570;27.826;2023-02-28T09:23:49;100280.16;;;8.08;100.00
11349;BME280;5729;43.570;27.826;2023-02-28T09:28:40;100266.34;;;7.92;100.00
11349;BME280;5729;43.570;27.826;2023-02-28T09:31:06;100266.00;;;7.85;100.00
11349;BME280;5729;43.570;27.826;2023-02-28T09:33:31;100269.03;;;7.92;100.00
11349;BME280;5729;43.570;27.826;2023-02-28T09:35:59;100266.94;;;7.80;100.00
11349;BME280;5729;43.570;27.826;2023-02-28T09:38:25;100263.63;;;7.83;100.00
11349;BME280;5729;43.570;27.826;2023-02-28T09:41:00;100267.97;;;7.71;100.00
11349;BME280;5729;43.570;27.826;2023-02-28T09:43:33;100269.38;;;7.68;100.00
11349;BME280;5729;43.570;27.826;2023-02-28T09:46:11;100258.31;;;7.61;100.00
11349;BME280;5729;43.570;27.826;2023-02-28T09:48:42;100251.13;;;7.48;100.00
11349;BME280;5729;43.570;27.826;2023-02-28T09:54:14;100257.69;;;7.64;100.00
11349;BME280;5729;43.570;27.826;2023-02-28T09:56:45;100263.28;;;7.76;100.00
11349;BME280;5729;43.570;27.826;2023-02-28T10:02:21;100267.97;;;8.01;100.00
11349;BME280;5729;43.570;27.826;2023-02-28T10:05:10;100273.69;;;8.09;100.00
11349;BME280;5729;43.570;27.826;2023-02-28T10:10:23;100265.81;;;7.81;100.00
11349;BME280;5729;43.570;27.826;2023-02-28T10:12:53;100274.88;;;7.94;100.00
11349;BME280;5729;43.570;27.826;2023-02-28T10:15:22;100280.28;;;8.02;100.00
11349;BME280;5729;43.570;27.826;2023-02-28T10:17:53;100269.94;;;8.18;100.00
11349;BME280;5729;43.570;27.826;2023-02-28T10:20:22;100272.41;;;8.06;100.00
11349;BME280;5729;43.570;27.826;2023-02-28T10:25:29;100263.34;;;7.93;100.00
11349;BME280;5729;43.570;27.826;2023-02-28T10:28:04;100270.53;;;8.15;100.00
11349;BME280;5729;43.570;27.826;2023-02-28T10:30:30;100266.53;;;7.95;100.00
11349;BME280;5729;43.570;27.826;2023-02-28T10:32:56;100270.31;;;7.94;100.00
11349;BME280;5729;43.570;27.826;2023-02-28T10:35:25;100264.66;;;8.05;100.00
11349;BME280;5729;43.570;27.826;2023-02-28T10:37:55;100267.22;;;8.10;100.00
11349;BME280;5729;43.570;27.826;2023-02-28T10:43:03;100279.31;;;7.90;100.00
11349;BME280;5729;43.570;27.826;2023-02-28T10:45:34;100267.69;;;7.72;100.00
11349;BME280;5729;43.570;27.826;2023-02-28T10:55:35;100251.63;;;7.81;100.00
11349;BME280;5729;43.570;27.826;2023-02-28T10:58:01;100234.06;;;7.75;100.00
11349;BME280;5729;43.570;27.826;2023-02-28T11:00:33;100241.13;;;7.62;100.00
11349;BME280;5729;43.570;27.826;2023-02-28T11:02:59;100234.72;;;7.80;100.00
11349;BME280;5729;43.570;27.826;2023-02-28T11:05:33;100232.75;;;8.03;100.00
11349;BME280;5729;43.570;27.826;2023-02-28T11:08:12;100232.44;;;8.05;100.00
11349;BME280;5729;43.570;27.826;2023-02-28T11:10:39;100233.72;;;8.07;100.00
11349;BME280;5729;43.570;27.826;2023-02-28T11:13:17;100228.56;;;8.28;100.00
11349;BME280;5729;43.570;27.826;2023-02-28T11:15:51;100220.41;;;7.93;100.00
11349;BME280;5729;43.570;27.826;2023-02-28T11:20:50;100229.00;;;8.13;100.00
11349;BME280;5729;43.570;27.826;2023-02-28T11:23:16;100217.16;;;8.14;100.00
11349;BME280;5729;43.570;27.826;2023-02-28T11:25:54;100219.88;;;8.22;100.00
11349;BME280;5729;43.570;27.826;2023-02-28T11:28:34;100216.53;;;8.25;100.00
11349;BME280;5729;43.570;27.826;2023-02-28T11:33:29;100198.81;;;8.07;100.00
11349;BME280;5729;43.570;27.826;2023-02-28T11:36:07;100203.16;;;7.77;100.00
11349;BME280;5729;43.570;27.826;2023-02-28T11:38:35;100204.91;;;7.90;100.00
11349;BME280;5729;43.570;27.826;2023-02-28T11:43:52;100195.31;;;7.89;100.00
11349;BME280;5729;43.570;27.826;2023-02-28T11:46:50;100196.91;;;7.99;100.00
11349;BME280;5729;43.570;27.826;2023-02-28T12:05:43;100172.97;;;7.72;100.00
11349;BME280;5729;43.570;27.826;2023-02-28T12:11:24;100169.69;;;7.83;100.00
11349;BME280;5729;43.570;27.826;2023-02-28T12:17:03;100180.75;;;7.90;100.00
11349;BME280;5729;43.570;27.826;2023-02-28T12:19:59;100175.25;;;7.95;100.00
11349;BME280;5729;43.570;27.826;2023-02-28T12:27:38;100192.78;;;8.01;100.00
11349;BME280;5729;43.570;27.826;2023-02-28T12:32:44;100178.84;;;7.82;100.00
11349;BME280;5729;43.570;27.826;2023-02-28T12:35:16;100189.53;;;7.65;100.00
11349;BME280;5729;43.570;27.826;2023-02-28T12:37:55;100193.22;;;7.78;100.00
11349;BME280;5729;43.570;27.826;2023-02-28T12:40:24;100189.84;;;7.72;100.00
11349;BME280;5729;43.570;27.826;2023-02-28T12:42:54;100197.88;;;7.63;100.00
11349;BME280;5729;43.570;27.826;2023-02-28T12:45:31;100201.28;;;7.86;100.00
11349;BME280;5729;43.570;27.826;2023-02-28T12:48:06;100201.50;;;7.98;100.00
11349;BME280;5729;43.570;27.826;2023-02-28T12:50:33;100198.28;;;7.88;100.00
11349;BME280;5729;43.570;27.826;2023-02-28T12:53:30;100204.09;;;7.81;100.00
11349;BME280;5729;43.570;27.826;2023-02-28T12:56:12;100189.72;;;7.77;100.00
11349;BME280;5729;43.570;27.826;2023-02-28T12:58:44;100197.03;;;7.85;100.00
11349;BME280;5729;43.570;27.826;2023-02-28T13:09:10;100201.88;;;7.75;100.00
11349;BME280;5729;43.570;27.826;2023-02-28T13:11:54;100204.38;;;7.40;100.00
11349;BME280;5729;43.570;27.826;2023-02-28T13:14:29;100197.34;;;7.53;100.00
11349;BME280;5729;43.570;27.826;2023-02-28T13:17:01;100206.09;;;7.36;100.00
11349;BME280;5729;43.570;27.826;2023-02-28T13:19:30;100200.66;;;7.19;100.00
11349;BME280;5729;43.570;27.826;2023-02-28T13:21:57;100193.66;;;7.09;100.00
11349;BME280;5729;43.570;27.826;2023-02-28T13:24:48;100194.03;;;7.25;100.00
11349;BME280;5729;43.570;27.826;2023-02-28T13:29:41;100197.28;;;6.69;100.00
11349;BME280;5729;43.570;27.826;2023-02-28T13:34:40;100184.91;;;6.81;100.00
11349;BME280;5729;43.570;27.826;2023-02-28T13:40:26;100196.88;;;6.75;100.00
11349;BME280;5729;43.570;27.826;2023-02-28T13:42:49;100203.44;;;6.91;100.00
11349;BME280;5729;43.570;27.826;2023-02-28T13:45:28;100191.53;;;6.62;100.00
11349;BME280;5729;43.570;27.826;2023-02-28T13:48:01;100195.97;;;6.66;100.00
11349;BME280;5729;43.570;27.826;2023-02-28T13:50:38;100199.53;;;6.75;100.00
11349;BME280;5729;43.570;27.826;2023-02-28T13:55:46;100189.19;;;6.46;100.00
11349;BME280;5729;43.570;27.826;2023-02-28T13:58:40;100190.50;;;6.49;100.00
11349;BME280;5729;43.570;27.826;2023-02-28T14:04:12;100178.25;;;6.56;100.00
11349;BME280;5729;43.570;27.826;2023-02-28T14:06:50;100183.00;;;6.60;100.00
11349;BME280;5729;43.570;27.826;2023-02-28T14:09:34;100184.63;;;6.47;100.00
11349;BME280;5729;43.570;27.826;2023-02-28T14:15:25;100179.94;;;6.30;100.00
11349;BME280;5729;43.570;27.826;2023-02-28T14:17:52;100182.09;;;6.42;100.00
11349;BME280;5729;43.570;27.826;2023-02-28T14:20:20;100161.19;;;6.30;100.00
11349;BME280;5729;43.570;27.826;2023-02-28T14:25:38;100183.69;;;6.29;100.00
11349;BME280;5729;43.570;27.826;2023-02-28T14:28:38;100191.75;;;6.15;100.00
11349;BME280;5729;43.570;27.826;2023-02-28T14:31:13;100187.06;;;6.21;100.00
11349;BME280;5729;43.570;27.826;2023-02-28T14:33:57;100187.84;;;6.22;100.00
11349;BME280;5729;43.570;27.826;2023-02-28T14:36:30;100173.38;;;6.23;100.00
11349;BME280;5729;43.570;27.826;2023-02-28T14:39:00;100170.75;;;6.09;100.00
11349;BME280;5729;43.570;27.826;2023-02-28T14:41:35;100180.34;;;6.10;100.00
11349;BME280;5729;43.570;27.826;2023-02-28T14:44:13;100183.34;;;6.08;100.00
11349;BME280;5729;43.570;27.826;2023-02-28T14:46:40;100187.69;;;6.18;100.00
11349;BME280;5729;43.570;27.826;2023-02-28T14:49:23;100195.94;;;6.08;100.00
11349;BME280;5729;43.570;27.826;2023-02-28T14:54:36;100191.25;;;5.86;100.00
11349;BME280;5729;43.570;27.826;2023-02-28T14:57:02;100182.94;;;5.74;100.00
11349;BME280;5729;43.570;27.826;2023-02-28T14:59:31;100207.88;;;5.83;100.00
11349;BME280;5729;43.570;27.826;2023-02-28T15:04:43;100192.53;;;5.89;100.00
11349;BME280;5729;43.570;27.826;2023-02-28T15:07:17;100191.84;;;5.83;100.00
11349;BME280;5729;43.570;27.826;2023-02-28T15:09:42;100184.00;;;5.87;100.00
11349;BME280;5729;43.570;27.826;2023-02-28T15:12:14;100191.63;;;5.66;100.00
11349;BME280;5729;43.570;27.826;2023-02-28T15:14:42;100190.94;;;5.60;100.00
11349;BME280;5729;43.570;27.826;2023-02-28T15:17:18;100190.03;;;5.78;100.00